createdAt,value
2019-02-21T00:02:15.358Z,28.98
2019-02-21T00:04:44.297Z,30.35
2019-02-21T00:07:12.857Z,30.85
2019-02-21T00:09:41.356Z,32.10
2019-02-21T00:12:09.834Z,28.62
2019-02-21T00:14:38.302Z,29.27
2019-02-21T00:17:06.847Z,29.70
2019-02-21T00:19:35.399Z,28.92
2019-02-21T00:22:03.950Z,29.30
2019-02-21T00:24:32.497Z,29.20
2019-02-21T00:27:00.995Z,35.05
2019-02-21T00:29:32.262Z,31.07
2019-02-21T00:32:00.734Z,31.05
2019-02-21T00:34:29.207Z,29.82
2019-02-21T00:36:57.803Z,30.10
2019-02-21T00:39:26.274Z,30.12
2019-02-21T00:41:54.756Z,31.40
2019-02-21T00:44:23.242Z,32.53
2019-02-21T00:46:51.898Z,32.20
2019-02-21T00:49:20.462Z,31.25
2019-02-21T00:51:49.014Z,28.40
2019-02-21T00:54:17.487Z,30.02
2019-02-21T00:56:45.964Z,32.93
2019-02-21T00:59:14.430Z,30.37
2019-02-21T01:01:43.589Z,33.10
2019-02-21T01:04:12.050Z,29.77
2019-02-21T01:06:40.526Z,31.70
2019-02-21T01:09:09.176Z,30.92
2019-02-21T01:11:37.788Z,31.30
2019-02-21T01:14:07.724Z,31.30
2019-02-21T01:16:36.220Z,30.15
2019-02-21T01:19:04.905Z,38.58
2019-02-21T01:21:33.453Z,29.07
2019-02-21T01:24:04.728Z,34.10
2019-02-21T01:26:32.274Z,32.85
2019-02-21T01:29:00.763Z,31.00
2019-02-21T01:31:29.230Z,32.93
2019-02-21T01:33:57.886Z,29.37
2019-02-21T01:36:26.341Z,31.27
2019-02-21T01:38:54.865Z,28.32
2019-02-21T01:41:23.326Z,30.48
2019-02-21T01:43:51.828Z,31.35
2019-02-21T01:46:20.307Z,31.93
2019-02-21T01:48:48.802Z,33.60
2019-02-21T01:51:17.250Z,37.38
2019-02-21T01:53:45.785Z,30.20
2019-02-21T01:56:14.226Z,31.05
2019-02-21T01:58:42.713Z,30.90
2019-02-21T02:01:11.167Z,32.78
2019-02-21T02:03:39.804Z,32.85
2019-02-21T02:06:08.276Z,29.42
2019-02-21T02:08:37.321Z,34.35
2019-02-21T02:11:05.885Z,32.13
2019-02-21T02:13:34.536Z,28.35
2019-02-21T02:16:03.076Z,31.00
2019-02-21T02:18:31.603Z,29.85
2019-02-21T02:21:00.160Z,31.20
2019-02-21T02:23:28.697Z,30.27
2019-02-21T02:25:57.161Z,32.35
2019-02-21T02:28:25.659Z,32.17
2019-02-21T02:30:55.792Z,33.92
2019-02-21T02:33:24.294Z,29.77
2019-02-21T02:35:52.748Z,32.78
2019-02-21T02:38:21.301Z,35.48
2019-02-21T02:40:49.839Z,38.05
2019-02-21T02:43:21.314Z,35.70
2019-02-21T02:45:49.909Z,33.15
2019-02-21T02:48:18.377Z,33.83
2019-02-21T02:50:46.913Z,32.58
2019-02-21T02:53:15.389Z,35.30
2019-02-21T02:55:43.869Z,35.38
2019-02-21T02:58:12.500Z,33.98
2019-02-21T03:00:40.989Z,39.55
2019-02-21T03:03:09.516Z,35.48
2019-02-21T03:05:37.999Z,36.93
2019-02-21T03:08:06.488Z,36.13
2019-02-21T03:10:36.509Z,37.63
2019-02-21T03:13:06.367Z,35.38
2019-02-21T03:15:35.309Z,34.38
2019-02-21T03:18:03.774Z,35.35
2019-02-21T03:20:32.277Z,36.98
2019-02-21T03:23:00.789Z,33.53
2019-02-21T03:25:29.295Z,38.05
2019-02-21T03:27:57.909Z,33.40
2019-02-21T03:30:26.389Z,37.48
2019-02-21T03:32:54.875Z,37.55
2019-02-21T03:35:23.533Z,39.03
2019-02-21T03:37:52.050Z,34.58
2019-02-21T03:40:20.700Z,35.20
2019-02-21T03:42:49.185Z,38.53
2019-02-21T03:45:17.845Z,35.88
2019-02-21T03:47:48.048Z,38.67
2019-02-21T03:50:16.721Z,38.42
2019-02-21T03:52:45.273Z,32.63
2019-02-21T03:55:13.911Z,35.78
2019-02-21T03:57:45.397Z,35.28
2019-02-21T04:00:14.132Z,33.18
2019-02-21T04:02:42.821Z,35.03
2019-02-21T04:05:11.509Z,37.63
2019-02-21T04:07:39.997Z,33.60
2019-02-21T04:10:09.648Z,34.43
2019-02-21T04:12:38.721Z,33.20
2019-02-21T04:15:10.130Z,36.38
2019-02-21T04:17:38.728Z,34.60
2019-02-21T04:20:08.465Z,35.98
2019-02-21T04:22:36.919Z,35.17
2019-02-21T04:25:07.232Z,35.38
2019-02-21T04:27:35.771Z,31.75
2019-02-21T04:30:04.843Z,35.75
2019-02-21T04:32:33.396Z,36.13
2019-02-21T04:35:01.983Z,36.88
2019-02-21T04:37:30.449Z,34.08
2019-02-21T04:39:58.916Z,34.78
2019-02-21T04:42:27.395Z,33.30
2019-02-21T04:44:55.931Z,35.20
2019-02-21T04:47:24.425Z,34.58
2019-02-21T04:49:52.894Z,37.23
2019-02-21T04:52:21.391Z,34.85
2019-02-21T04:54:49.859Z,37.42
2019-02-21T04:57:18.363Z,35.30
2019-02-21T04:59:46.921Z,35.30
2019-02-21T05:02:15.459Z,38.30
2019-02-21T05:04:43.939Z,37.60
2019-02-21T05:07:12.444Z,35.65
2019-02-21T05:09:40.919Z,39.58
2019-02-21T05:12:09.433Z,40.63
2019-02-21T05:14:37.924Z,36.08
2019-02-21T05:17:06.472Z,38.10
2019-02-21T05:19:34.946Z,37.17
2019-02-21T05:22:03.450Z,35.33
2019-02-21T05:24:31.936Z,37.20
2019-02-21T05:27:05.024Z,37.15
2019-02-21T05:29:33.504Z,36.30
2019-02-21T05:32:06.118Z,33.85
2019-02-21T05:34:36.276Z,37.13
2019-02-21T05:40:03.792Z,35.80
2019-02-21T05:42:36.994Z,36.68
2019-02-21T05:45:14.063Z,43.52
2019-02-21T05:47:46.097Z,36.15
2019-02-21T05:50:25.570Z,35.48
2019-02-21T05:52:55.718Z,38.10
2019-02-21T05:55:29.424Z,38.45
2019-02-21T05:57:59.501Z,39.90
2019-02-21T06:00:36.911Z,36.53
2019-02-21T06:03:13.207Z,36.90
2019-02-21T06:05:59.340Z,34.50
2019-02-21T06:08:29.466Z,38.92
2019-02-21T06:11:11.375Z,38.92
2019-02-21T06:13:57.520Z,40.15
2019-02-21T06:16:32.543Z,35.45
2019-02-21T06:19:04.957Z,40.85
2019-02-21T06:21:37.634Z,38.83
2019-02-21T06:24:22.679Z,36.88
2019-02-21T06:26:56.821Z,39.25
2019-02-21T06:29:26.948Z,35.95
2019-02-21T06:31:57.789Z,34.48
2019-02-21T06:34:26.267Z,34.67
2019-02-21T06:36:54.770Z,39.45
2019-02-21T06:39:25.122Z,37.13
2019-02-21T06:41:59.719Z,34.43
2019-02-21T06:44:23.701Z,39.18
2019-02-21T06:46:52.184Z,37.08
2019-02-21T06:49:31.835Z,31.90
2019-02-21T06:51:50.887Z,33.92
2019-02-21T06:54:19.369Z,36.80
2019-02-21T06:56:47.858Z,39.98
2019-02-21T06:59:16.341Z,39.63
2019-02-21T07:01:44.821Z,39.58
2019-02-21T07:04:13.354Z,35.80
2019-02-21T07:06:43.785Z,37.90
2019-02-21T07:09:12.265Z,35.58
2019-02-21T07:11:40.821Z,36.73
2019-02-21T07:14:10.930Z,37.05
2019-02-21T07:16:39.536Z,37.90
2019-02-21T07:19:08.001Z,36.00
2019-02-21T07:21:36.742Z,34.75
2019-02-21T07:24:05.355Z,38.15
2019-02-21T07:27:19.035Z,33.00
2019-02-21T07:29:47.534Z,34.92
2019-02-21T07:32:16.026Z,35.08
2019-02-21T07:34:46.026Z,37.38
2019-02-21T07:37:18.677Z,37.50
2019-02-21T07:39:44.839Z,36.42
2019-02-21T07:42:13.446Z,40.90
2019-02-21T07:44:42.005Z,33.90
2019-02-21T07:47:10.492Z,37.50
2019-02-21T07:49:41.003Z,39.15
2019-02-21T07:52:09.462Z,36.98
2019-02-21T07:54:38.012Z,34.60
2019-02-21T07:57:08.492Z,37.23
2019-02-21T07:59:36.758Z,37.67
2019-02-21T08:02:05.316Z,33.65
2019-02-21T08:04:33.798Z,32.38
2019-02-21T08:07:02.273Z,34.73
2019-02-21T08:09:30.776Z,33.83
2019-02-21T08:11:59.334Z,31.73
2019-02-21T08:14:27.811Z,31.93
2019-02-21T08:16:56.328Z,31.57
2019-02-21T08:19:24.916Z,32.55
2019-02-21T08:21:53.545Z,35.28
2019-02-21T08:24:22.122Z,31.55
2019-02-21T08:26:50.587Z,32.30
2019-02-21T08:29:20.766Z,30.70
2019-02-21T08:31:49.591Z,33.78
2019-02-21T08:34:19.721Z,33.95
2019-02-21T08:36:48.314Z,33.00
2019-02-21T08:39:16.787Z,34.33
2019-02-21T08:41:45.260Z,36.45
2019-02-21T08:44:13.807Z,36.95
2019-02-21T08:46:42.425Z,37.60
2019-02-21T08:49:10.919Z,34.63
2019-02-21T08:51:39.394Z,36.17
2019-02-21T08:54:07.871Z,34.33
2019-02-21T08:56:36.370Z,34.60
2019-02-21T08:59:04.845Z,37.88
2019-02-21T09:01:33.373Z,37.13
2019-02-21T09:04:10.093Z,38.33
2019-02-21T09:06:32.188Z,36.35
2019-02-21T09:09:00.701Z,39.10
2019-02-21T09:11:29.169Z,36.93
2019-02-21T09:13:57.721Z,38.60
2019-02-21T09:16:26.176Z,40.78
2019-02-21T09:18:54.714Z,37.80
2019-02-21T09:21:23.273Z,39.60
2019-02-21T09:23:51.736Z,35.45
2019-02-21T09:26:21.684Z,33.00
2019-02-21T09:28:50.371Z,34.88
2019-02-21T09:31:18.960Z,34.70
2019-02-21T09:33:47.422Z,36.80
2019-02-21T09:36:16.966Z,38.25
2019-02-21T09:38:45.383Z,32.88
2019-02-21T09:41:13.869Z,34.78
2019-02-21T09:43:42.416Z,37.67
2019-02-21T09:46:11.013Z,35.30
2019-02-21T09:48:39.585Z,36.60
2019-02-21T09:51:08.194Z,35.90
2019-02-21T09:53:36.661Z,38.02
2019-02-21T09:56:05.199Z,36.23
2019-02-21T09:58:33.775Z,35.73
2019-02-21T10:01:02.394Z,39.30
2019-02-21T10:03:30.899Z,35.28
2019-02-21T10:05:59.372Z,38.25
2019-02-21T10:08:27.847Z,34.30
2019-02-21T10:10:56.328Z,37.10
2019-02-21T10:13:24.819Z,34.67
2019-02-21T10:15:53.415Z,35.38
2019-02-21T10:18:21.909Z,39.55
2019-02-21T10:20:50.598Z,38.13
2019-02-21T10:23:19.085Z,37.93
2019-02-21T10:25:47.653Z,34.40
2019-02-21T10:28:16.263Z,32.75
2019-02-21T10:30:44.744Z,35.78
2019-02-21T10:33:13.223Z,35.70
2019-02-21T10:35:47.919Z,36.15
2019-02-21T10:38:16.421Z,37.28
2019-02-21T10:40:44.927Z,35.13
2019-02-21T10:43:15.269Z,37.60
2019-02-21T10:45:47.795Z,34.75
2019-02-21T10:48:14.027Z,32.03
2019-02-21T10:50:42.497Z,35.28
2019-02-21T10:53:12.101Z,34.20
2019-02-21T10:55:40.587Z,39.00
2019-02-21T10:58:09.217Z,32.98
2019-02-21T11:00:37.972Z,36.10
2019-02-21T11:03:06.604Z,33.58
2019-02-21T11:05:35.214Z,42.53
2019-02-21T11:08:03.979Z,37.33
2019-02-21T11:10:32.490Z,38.45
2019-02-21T11:13:01.009Z,44.60
2019-02-21T11:15:29.514Z,40.90
2019-02-21T11:17:58.247Z,41.58
2019-02-21T11:20:26.830Z,39.25
2019-02-21T11:22:55.341Z,39.67
2019-02-21T11:25:23.945Z,40.70
2019-02-21T11:27:52.437Z,42.55
2019-02-21T11:30:21.613Z,38.98
2019-02-21T11:32:50.183Z,43.58
2019-02-21T11:35:18.814Z,42.48
2019-02-21T11:37:47.718Z,43.63
2019-02-21T11:40:17.613Z,44.25
2019-02-21T11:42:46.367Z,39.58
2019-02-21T11:45:19.824Z,41.28
2019-02-21T11:47:48.323Z,45.23
2019-02-21T11:50:18.641Z,38.38
2019-02-21T11:52:47.212Z,45.03
2019-02-21T11:55:26.240Z,41.77
2019-02-21T11:57:55.139Z,46.15
2019-02-21T12:00:32.872Z,47.33
2019-02-21T12:03:01.376Z,50.23
2019-02-21T12:05:31.888Z,46.20
2019-02-21T12:08:11.548Z,46.55
2019-02-21T12:10:40.023Z,48.65
2019-02-21T12:13:08.518Z,47.05
2019-02-21T12:16:06.256Z,48.98
2019-02-21T12:18:48.472Z,46.55
2019-02-21T12:21:17.116Z,45.52
2019-02-21T12:24:10.791Z,50.17
2019-02-21T12:26:41.258Z,46.83
2019-02-21T12:29:46.886Z,48.52
2019-02-21T12:32:21.140Z,50.15
2019-02-21T12:34:49.960Z,46.68
2019-02-21T12:37:18.484Z,50.90
2019-02-21T12:39:46.962Z,44.13
2019-02-21T12:42:15.538Z,48.52
2019-02-21T12:44:44.060Z,41.35
2019-02-21T12:47:12.621Z,44.90
2019-02-21T12:49:41.137Z,44.03
2019-02-21T12:52:09.742Z,52.80
2019-02-21T12:54:38.281Z,48.60
2019-02-21T12:57:06.775Z,49.00
2019-02-21T12:59:35.232Z,46.25
2019-02-21T13:02:03.956Z,48.48
2019-02-21T13:04:34.624Z,44.45
2019-02-21T13:07:02.671Z,46.85
2019-02-21T13:09:31.665Z,46.10
2019-02-21T13:12:01.319Z,50.70
2019-02-21T13:14:29.821Z,47.23
2019-02-21T13:16:58.281Z,47.70
2019-02-21T13:19:26.755Z,46.45
2019-02-21T13:21:55.342Z,45.25
2019-02-21T13:24:23.881Z,49.30
2019-02-21T13:26:53.405Z,44.45
2019-02-21T13:29:21.866Z,47.95
2019-02-21T13:31:50.359Z,48.52
2019-02-21T13:34:18.853Z,50.67
2019-02-21T13:36:47.336Z,47.50
2019-02-21T13:39:15.802Z,45.23
2019-02-21T13:41:44.286Z,41.13
2019-02-21T13:44:12.797Z,44.15
2019-02-21T13:46:41.904Z,45.05
2019-02-21T13:49:10.572Z,45.43
2019-02-21T13:51:39.119Z,46.33
2019-02-21T13:54:07.614Z,51.05
2019-02-21T13:56:36.075Z,46.92
2019-02-21T13:59:06.272Z,46.60
2019-02-21T14:01:34.758Z,42.05
2019-02-21T14:04:03.261Z,41.85
2019-02-21T14:06:31.748Z,39.88
2019-02-21T14:09:00.243Z,43.10
2019-02-21T14:11:30.732Z,44.10
2019-02-21T14:13:59.007Z,42.78
2019-02-21T14:16:27.531Z,40.73
2019-02-21T14:18:56.110Z,38.28
2019-02-21T14:21:24.638Z,41.53
2019-02-21T14:23:53.148Z,36.23
2019-02-21T14:26:21.695Z,37.50
2019-02-21T14:28:50.189Z,37.58
2019-02-21T14:31:18.655Z,40.03
2019-02-21T14:33:47.155Z,40.85
2019-02-21T14:36:19.083Z,41.53
2019-02-21T14:38:46.148Z,39.73
2019-02-21T14:41:14.678Z,35.00
2019-02-21T14:43:43.261Z,39.23
2019-02-21T14:46:11.732Z,40.30
2019-02-21T14:48:40.229Z,41.08
2019-02-21T14:51:08.764Z,39.03
2019-02-21T14:53:37.233Z,40.03
2019-02-21T14:56:05.855Z,40.05
2019-02-21T14:58:34.327Z,43.40
2019-02-21T15:01:02.858Z,43.23
2019-02-21T15:03:31.356Z,39.63
2019-02-21T15:05:59.858Z,43.42
2019-02-21T15:08:28.351Z,46.68
2019-02-21T15:10:56.813Z,47.70
2019-02-21T15:13:25.685Z,47.62
2019-02-21T15:15:54.176Z,47.43
2019-02-21T15:18:22.768Z,43.78
2019-02-21T15:20:51.290Z,46.10
2019-02-21T15:23:19.853Z,42.48
2019-02-21T15:25:48.307Z,43.40
2019-02-21T15:28:16.792Z,46.23
2019-02-21T15:30:45.504Z,47.33
2019-02-21T15:33:14.076Z,52.33
2019-02-21T15:35:42.618Z,47.65
2019-02-21T15:38:19.834Z,48.23
2019-02-21T15:40:44.491Z,46.85
2019-02-21T15:43:13.064Z,41.77
2019-02-21T15:45:41.712Z,47.10
2019-02-21T15:48:10.339Z,51.35
2019-02-21T15:50:38.802Z,49.73
2019-02-21T15:53:08.944Z,49.00
2019-02-21T15:55:37.436Z,55.05
2019-02-21T15:58:05.907Z,51.55
2019-02-21T16:00:34.452Z,56.83
2019-02-21T16:03:09.887Z,54.13
2019-02-21T16:05:38.373Z,47.03
2019-02-21T16:11:29.179Z,44.58
2019-02-21T16:14:03.118Z,44.30
2019-02-21T16:16:28.909Z,39.33
2019-02-21T16:19:01.744Z,42.27
2019-02-21T16:21:30.575Z,46.68
2019-02-21T16:24:01.044Z,45.23
2019-02-21T16:26:29.224Z,42.65
2019-02-21T16:28:57.701Z,45.78
2019-02-21T16:31:26.562Z,46.10
2019-02-21T16:33:55.047Z,45.55
2019-02-21T16:36:24.158Z,42.17
2019-02-21T16:38:52.800Z,39.27
2019-02-21T16:41:21.450Z,49.80
2019-02-21T16:43:49.923Z,41.33
2019-02-21T16:46:18.538Z,42.90
2019-02-21T16:48:46.989Z,42.23
2019-02-21T16:51:15.937Z,42.30
2019-02-21T16:53:44.398Z,40.17
2019-02-21T16:56:13.508Z,40.65
2019-02-21T16:58:42.912Z,40.58
2019-02-21T17:01:11.665Z,39.00
2019-02-21T17:03:40.480Z,40.48
2019-02-21T17:06:09.024Z,42.53
2019-02-21T17:08:37.732Z,42.55
2019-02-21T17:11:06.422Z,38.40
2019-02-21T17:13:35.239Z,41.50
2019-02-21T17:16:04.252Z,41.88
2019-02-21T17:18:33.008Z,39.45
2019-02-21T17:21:01.847Z,36.28
2019-02-21T17:23:30.523Z,38.78
2019-02-21T17:25:59.222Z,35.80
2019-02-21T17:28:28.045Z,36.42
2019-02-21T17:30:56.770Z,37.93
2019-02-21T17:33:25.427Z,35.80
2019-02-21T17:35:55.070Z,37.00
2019-02-21T17:38:49.667Z,36.28
2019-02-21T17:41:18.451Z,30.23
2019-02-21T17:43:48.042Z,35.48
2019-02-21T17:46:20.936Z,33.10
2019-02-21T17:48:49.904Z,35.25
2019-02-21T17:51:18.800Z,32.63
2019-02-21T17:53:48.513Z,35.30
2019-02-21T17:56:17.169Z,34.83
2019-02-21T17:58:45.748Z,28.77
2019-02-21T18:01:14.278Z,30.25
2019-02-21T18:03:42.770Z,29.20
2019-02-21T18:06:11.820Z,27.22
2019-02-21T18:08:40.869Z,25.23
2019-02-21T18:11:09.643Z,25.95
2019-02-21T18:13:43.015Z,26.42
2019-02-21T18:16:13.122Z,26.20
2019-02-21T18:18:44.714Z,24.92
2019-02-21T18:21:16.157Z,26.05
2019-02-21T18:23:46.268Z,26.30
2019-02-21T18:26:16.789Z,26.42
2019-02-21T18:28:45.729Z,27.73
2019-02-21T18:31:14.591Z,28.17
2019-02-21T18:33:43.477Z,26.90
2019-02-21T18:36:12.053Z,28.92
2019-02-21T18:38:40.533Z,29.05
2019-02-21T18:41:09.620Z,30.90
2019-02-21T18:43:41.382Z,30.15
2019-02-21T18:46:10.124Z,33.40
2019-02-21T18:48:39.016Z,30.40
2019-02-21T18:51:08.043Z,37.48
2019-02-21T18:53:36.871Z,33.08
2019-02-21T18:56:06.377Z,34.48
2019-02-21T18:58:41.154Z,35.63
2019-02-21T19:03:38.201Z,36.68
2019-02-21T19:06:07.259Z,33.23
2019-02-21T19:08:36.326Z,32.93
2019-02-21T19:11:05.346Z,30.60
2019-02-21T19:13:35.733Z,29.92
2019-02-21T19:16:04.706Z,32.33
2019-02-21T19:18:33.529Z,29.98
2019-02-21T19:21:03.635Z,30.00
2019-02-21T19:23:32.242Z,29.27
2019-02-21T19:26:00.748Z,29.95
2019-02-21T19:28:31.319Z,28.83
2019-02-21T19:31:05.826Z,29.18
2019-02-21T19:33:34.398Z,31.48
2019-02-21T19:36:03.007Z,30.55
2019-02-21T19:38:36.599Z,30.10
2019-02-21T19:41:05.343Z,26.68
2019-02-21T19:43:33.964Z,27.37
2019-02-21T19:46:02.573Z,29.50
2019-02-21T19:48:31.139Z,29.40
2019-02-21T19:50:59.601Z,27.95
2019-02-21T19:53:28.175Z,31.60
2019-02-21T19:55:56.800Z,29.20
2019-02-21T19:58:25.368Z,30.92
2019-02-21T20:00:53.930Z,32.55
2019-02-21T20:03:22.554Z,31.40
2019-02-21T20:05:51.050Z,32.03
2019-02-21T20:08:21.716Z,33.02
2019-02-21T20:10:50.390Z,33.00
2019-02-21T20:13:19.072Z,34.43
2019-02-21T20:15:47.606Z,33.65
2019-02-21T20:18:16.132Z,38.38
2019-02-21T20:20:44.606Z,35.08
2019-02-21T20:23:16.241Z,38.53
2019-02-21T20:25:44.774Z,35.58
2019-02-21T20:28:15.664Z,37.25
2019-02-21T20:30:46.993Z,37.45
2019-02-21T20:33:14.822Z,42.08
2019-02-21T20:35:43.467Z,38.17
2019-02-21T20:38:12.002Z,40.92
2019-02-21T20:40:40.570Z,38.55
2019-02-21T20:43:09.236Z,37.20
2019-02-21T20:45:39.344Z,37.20
2019-02-21T20:48:08.060Z,40.83
2019-02-21T20:50:36.636Z,40.38
2019-02-21T20:53:05.152Z,42.67
2019-02-21T20:55:43.064Z,44.25
2019-02-21T20:58:06.737Z,44.70
2019-02-21T21:00:35.317Z,47.25
2019-02-21T21:03:03.770Z,44.38
2019-02-21T21:05:32.260Z,50.90
2019-02-21T21:12:29.195Z,50.83
2019-02-21T21:14:59.225Z,54.25
2019-02-21T21:17:27.715Z,60.48
2019-02-21T21:19:56.731Z,53.13
2019-02-21T21:22:25.223Z,58.58
2019-02-21T21:24:53.807Z,63.20
2019-02-21T21:27:22.915Z,64.45
2019-02-21T21:29:51.921Z,60.00
2019-02-21T21:32:20.446Z,66.22
2019-02-21T21:34:48.911Z,63.10
2019-02-21T21:37:17.410Z,62.10
2019-02-21T21:39:49.187Z,67.95
2019-02-21T21:42:17.679Z,63.78
2019-02-21T21:44:46.233Z,65.55
2019-02-21T21:47:14.811Z,63.78
2019-02-21T21:49:43.273Z,64.32
2019-02-21T21:52:11.818Z,64.82
2019-02-21T21:54:40.371Z,71.47
2019-02-21T21:57:09.431Z,69.87
2019-02-21T21:59:37.891Z,65.03
2019-02-21T22:02:06.407Z,66.65
2019-02-21T22:04:34.872Z,73.07
2019-02-21T22:07:09.691Z,72.62
2019-02-21T22:12:05.933Z,68.90
2019-02-21T22:14:34.412Z,71.17
2019-02-21T22:17:04.507Z,75.87
2019-02-21T22:19:33.005Z,69.53
2019-02-21T22:22:01.460Z,70.40
2019-02-21T22:24:29.956Z,71.02
2019-02-21T22:26:58.438Z,70.12
2019-02-21T22:29:26.920Z,70.50
2019-02-21T22:31:55.387Z,74.62
2019-02-21T22:34:28.326Z,66.82
2019-02-21T22:36:58.438Z,78.37
2019-02-21T22:39:26.929Z,71.00
2019-02-21T22:41:55.415Z,77.12
2019-02-21T22:44:24.006Z,75.57
2019-02-21T22:46:52.689Z,78.97
2019-02-21T22:49:21.260Z,75.10
2019-02-21T22:51:49.735Z,79.15
2019-02-21T22:54:18.218Z,78.10
2019-02-21T22:56:46.682Z,84.62
2019-02-21T22:59:15.164Z,83.05
2019-02-21T23:01:43.870Z,82.22
2019-02-21T23:04:15.704Z,84.07
2019-02-21T23:06:59.015Z,74.75
2019-02-21T23:09:28.324Z,76.50
2019-02-21T23:11:56.975Z,87.37
2019-02-21T23:14:25.523Z,90.42
2019-02-21T23:16:54.085Z,82.92
2019-02-21T23:19:24.217Z,76.07
2019-02-21T23:21:52.873Z,81.45
2019-02-21T23:24:21.328Z,86.20
2019-02-21T23:26:49.802Z,82.72
2019-02-21T23:29:18.688Z,87.65
2019-02-21T23:31:47.187Z,92.45
2019-02-21T23:34:19.854Z,83.87
2019-02-21T23:36:48.331Z,86.17
2019-02-21T23:39:16.811Z,87.67
2019-02-21T23:41:45.286Z,74.00
2019-02-21T23:44:13.821Z,72.60
2019-02-21T23:46:42.360Z,71.25
2019-02-21T23:49:10.841Z,73.37
2019-02-21T23:51:39.364Z,63.98
2019-02-21T23:54:07.902Z,66.80
2019-02-21T23:56:36.423Z,62.27
2019-02-21T23:59:04.893Z,68.33
